sensor_id;sensor_type;location;lat;lon;timestamp;P1;durP1;ratioP1;P2;durP2;ratioP2
20935;SDS011;10627;54.514;18.532;2022-09-13T00:00:43;8.57;;;4.85;;
20935;SDS011;10627;54.514;18.532;2022-09-13T00:06:07;8.70;;;4.57;;
20935;SDS011;10627;54.514;18.532;2022-09-13T00:11:22;6.13;;;4.10;;
20935;SDS011;10627;54.514;18.532;2022-09-13T00:17:11;5.85;;;4.22;;
20935;SDS011;10627;54.514;18.532;2022-09-13T00:22:18;10.23;;;4.90;;
20935;SDS011;10627;54.514;18.532;2022-09-13T00:27:25;7.43;;;4.47;;
20935;SDS011;10627;54.514;18.532;2022-09-13T00:32:36;6.13;;;4.27;;
20935;SDS011;10627;54.514;18.532;2022-09-13T00:37:39;5.18;;;4.05;;
20935;SDS011;10627;54.514;18.532;2022-09-13T00:42:50;7.65;;;3.70;;
20935;SDS011;10627;54.514;18.532;2022-09-13T00:58:47;10.57;;;3.95;;
20935;SDS011;10627;54.514;18.532;2022-09-13T01:04:16;6.30;;;3.75;;
20935;SDS011;10627;54.514;18.532;2022-09-13T01:09:27;6.80;;;3.88;;
20935;SDS011;10627;54.514;18.532;2022-09-13T01:14:33;5.93;;;3.87;;
20935;SDS011;10627;54.514;18.532;2022-09-13T01:19:38;4.93;;;2.97;;
20935;SDS011;10627;54.514;18.532;2022-09-13T01:51:12;6.53;;;3.53;;
20935;SDS011;10627;54.514;18.532;2022-09-13T01:56:15;6.17;;;3.50;;
20935;SDS011;10627;54.514;18.532;2022-09-13T02:07:26;3.43;;;3.10;;
20935;SDS011;10627;54.514;18.532;2022-09-13T02:12:45;5.43;;;3.37;;
20935;SDS011;10627;54.514;18.532;2022-09-13T02:18:09;4.33;;;3.60;;
20935;SDS011;10627;54.514;18.532;2022-09-13T02:23:36;5.13;;;2.70;;
20935;SDS011;10627;54.514;18.532;2022-09-13T02:29:07;3.93;;;3.10;;
20935;SDS011;10627;54.514;18.532;2022-09-13T02:34:13;6.55;;;3.60;;
20935;SDS011;10627;54.514;18.532;2022-09-13T02:39:23;5.87;;;3.30;;
20935;SDS011;10627;54.514;18.532;2022-09-13T02:44:32;3.63;;;3.27;;
20935;SDS011;10627;54.514;18.532;2022-09-13T02:55:22;6.27;;;4.50;;
20935;SDS011;10627;54.514;18.532;2022-09-13T03:00:41;7.67;;;4.10;;
20935;SDS011;10627;54.514;18.532;2022-09-13T03:05:42;5.80;;;4.20;;
20935;SDS011;10627;54.514;18.532;2022-09-13T03:21:46;7.43;;;3.90;;
20935;SDS011;10627;54.514;18.532;2022-09-13T03:27:25;7.13;;;4.37;;
20935;SDS011;10627;54.514;18.532;2022-09-13T03:43:12;6.57;;;3.30;;
20935;SDS011;10627;54.514;18.532;2022-09-13T03:48:17;7.88;;;4.50;;
20935;SDS011;10627;54.514;18.532;2022-09-13T03:53:25;10.20;;;4.53;;
20935;SDS011;10627;54.514;18.532;2022-09-13T03:58:28;6.17;;;4.03;;
20935;SDS011;10627;54.514;18.532;2022-09-13T04:03:29;7.07;;;3.67;;
20935;SDS011;10627;54.514;18.532;2022-09-13T04:08:32;4.70;;;3.47;;
20935;SDS011;10627;54.514;18.532;2022-09-13T04:13:34;6.90;;;3.80;;
20935;SDS011;10627;54.514;18.532;2022-09-13T04:18:36;6.63;;;4.00;;
20935;SDS011;10627;54.514;18.532;2022-09-13T04:23:38;9.53;;;4.10;;
20935;SDS011;10627;54.514;18.532;2022-09-13T04:28:39;6.13;;;3.87;;
20935;SDS011;10627;54.514;18.532;2022-09-13T04:33:40;7.97;;;4.00;;
20935;SDS011;10627;54.514;18.532;2022-09-13T04:38:41;8.90;;;4.23;;
20935;SDS011;10627;54.514;18.532;2022-09-13T04:43:42;8.37;;;3.60;;
20935;SDS011;10627;54.514;18.532;2022-09-13T04:48:47;6.83;;;3.43;;
20935;SDS011;10627;54.514;18.532;2022-09-13T04:53:52;8.37;;;3.57;;
20935;SDS011;10627;54.514;18.532;2022-09-13T04:58:55;5.82;;;3.70;;
20935;SDS011;10627;54.514;18.532;2022-09-13T05:03:57;5.07;;;3.55;;
20935;SDS011;10627;54.514;18.532;2022-09-13T05:09:05;4.97;;;3.80;;
20935;SDS011;10627;54.514;18.532;2022-09-13T05:14:14;7.38;;;3.30;;
20935;SDS011;10627;54.514;18.532;2022-09-13T05:19:15;6.60;;;3.33;;
20935;SDS011;10627;54.514;18.532;2022-09-13T05:24:17;4.93;;;2.90;;
20935;SDS011;10627;54.514;18.532;2022-09-13T05:29:18;6.97;;;3.28;;
20935;SDS011;10627;54.514;18.532;2022-09-13T05:34:19;4.30;;;2.67;;
20935;SDS011;10627;54.514;18.532;2022-09-13T05:39:20;4.15;;;2.70;;
20935;SDS011;10627;54.514;18.532;2022-09-13T05:44:23;3.10;;;2.25;;
20935;SDS011;10627;54.514;18.532;2022-09-13T05:49:24;5.32;;;2.42;;
20935;SDS011;10627;54.514;18.532;2022-09-13T05:54:26;8.00;;;3.25;;
20935;SDS011;10627;54.514;18.532;2022-09-13T05:59:27;8.75;;;2.50;;
20935;SDS011;10627;54.514;18.532;2022-09-13T06:04:30;5.80;;;2.42;;
20935;SDS011;10627;54.514;18.532;2022-09-13T06:09:30;3.42;;;2.15;;
20935;SDS011;10627;54.514;18.532;2022-09-13T06:14:31;2.58;;;2.10;;
20935;SDS011;10627;54.514;18.532;2022-09-13T06:19:36;6.53;;;1.95;;
20935;SDS011;10627;54.514;18.532;2022-09-13T06:24:38;4.22;;;2.03;;
20935;SDS011;10627;54.514;18.532;2022-09-13T06:29:38;6.82;;;1.83;;
20935;SDS011;10627;54.514;18.532;2022-09-13T06:34:39;2.78;;;1.77;;
20935;SDS011;10627;54.514;18.532;2022-09-13T06:39:39;3.55;;;1.83;;
20935;SDS011;10627;54.514;18.532;2022-09-13T06:44:40;6.82;;;2.75;;
20935;SDS011;10627;54.514;18.532;2022-09-13T06:49:41;6.68;;;2.05;;
20935;SDS011;10627;54.514;18.532;2022-09-13T06:54:45;4.70;;;1.98;;
20935;SDS011;10627;54.514;18.532;2022-09-13T06:59:46;6.53;;;2.13;;
20935;SDS011;10627;54.514;18.532;2022-09-13T07:04:47;3.30;;;1.90;;
20935;SDS011;10627;54.514;18.532;2022-09-13T07:09:47;4.05;;;2.08;;
20935;SDS011;10627;54.514;18.532;2022-09-13T07:14:50;2.88;;;1.83;;
20935;SDS011;10627;54.514;18.532;2022-09-13T07:19:56;5.25;;;2.20;;
20935;SDS011;10627;54.514;18.532;2022-09-13T07:24:58;6.35;;;2.05;;
20935;SDS011;10627;54.514;18.532;2022-09-13T07:30:01;5.03;;;2.20;;
20935;SDS011;10627;54.514;18.532;2022-09-13T07:35:06;8.30;;;2.47;;
20935;SDS011;10627;54.514;18.532;2022-09-13T07:40:12;4.53;;;2.20;;
20935;SDS011;10627;54.514;18.532;2022-09-13T07:45:29;4.30;;;2.38;;
20935;SDS011;10627;54.514;18.532;2022-09-13T07:50:35;2.65;;;2.10;;
20935;SDS011;10627;54.514;18.532;2022-09-13T07:55:49;6.82;;;2.22;;
20935;SDS011;10627;54.514;18.532;2022-09-13T08:06:10;4.80;;;2.78;;
20935;SDS011;10627;54.514;18.532;2022-09-13T08:11:22;4.88;;;2.70;;
20935;SDS011;10627;54.514;18.532;2022-09-13T08:16:35;6.13;;;3.22;;
20935;SDS011;10627;54.514;18.532;2022-09-13T08:21:40;5.28;;;3.65;;
20935;SDS011;10627;54.514;18.532;2022-09-13T08:26:42;4.45;;;3.15;;
20935;SDS011;10627;54.514;18.532;2022-09-13T08:31:47;6.03;;;2.80;;
20935;SDS011;10627;54.514;18.532;2022-09-13T08:36:54;6.90;;;3.10;;
20935;SDS011;10627;54.514;18.532;2022-09-13T08:47:39;8.80;;;3.72;;
20935;SDS011;10627;54.514;18.532;2022-09-13T08:58:04;6.10;;;4.13;;
20935;SDS011;10627;54.514;18.532;2022-09-13T09:03:45;8.83;;;3.97;;
20935;SDS011;10627;54.514;18.532;2022-09-13T09:08:51;9.18;;;4.75;;
20935;SDS011;10627;54.514;18.532;2022-09-13T09:19:27;6.95;;;3.60;;
20935;SDS011;10627;54.514;18.532;2022-09-13T09:24:34;7.50;;;4.07;;
20935;SDS011;10627;54.514;18.532;2022-09-13T09:29:39;15.07;;;4.70;;
20935;SDS011;10627;54.514;18.532;2022-09-13T09:40:11;10.52;;;4.82;;
20935;SDS011;10627;54.514;18.532;2022-09-13T10:01:49;7.68;;;5.40;;
20935;SDS011;10627;54.514;18.532;2022-09-13T10:06:51;7.60;;;5.78;;
20935;SDS011;10627;54.514;18.532;2022-09-13T10:12:09;6.65;;;5.47;;
20935;SDS011;10627;54.514;18.532;2022-09-13T10:22:25;7.45;;;5.78;;
20935;SDS011;10627;54.514;18.532;2022-09-13T10:27:36;7.65;;;4.63;;
20935;SDS011;10627;54.514;18.532;2022-09-13T10:32:41;8.93;;;5.35;;
20935;SDS011;10627;54.514;18.532;2022-09-13T10:37:43;5.95;;;4.47;;
20935;SDS011;10627;54.514;18.532;2022-09-13T10:42:54;7.00;;;4.68;;
20935;SDS011;10627;54.514;18.532;2022-09-13T10:48:04;9.38;;;5.28;;
20935;SDS011;10627;54.514;18.532;2022-09-13T10:58:48;7.07;;;4.10;;
20935;SDS011;10627;54.514;18.532;2022-09-13T11:30:41;9.25;;;4.80;;
20935;SDS011;10627;54.514;18.532;2022-09-13T11:36:10;6.45;;;5.13;;
20935;SDS011;10627;54.514;18.532;2022-09-13T11:42:04;9.52;;;5.07;;
20935;SDS011;10627;54.514;18.532;2022-09-13T11:52:34;10.93;;;4.88;;
20935;SDS011;10627;54.514;18.532;2022-09-13T11:57:51;6.22;;;4.57;;
20935;SDS011;10627;54.514;18.532;2022-09-13T12:08:09;7.07;;;4.15;;
20935;SDS011;10627;54.514;18.532;2022-09-13T12:13:15;4.88;;;4.40;;
20935;SDS011;10627;54.514;18.532;2022-09-13T12:18:20;10.45;;;4.68;;
20935;SDS011;10627;54.514;18.532;2022-09-13T12:23:38;10.45;;;4.55;;
20935;SDS011;10627;54.514;18.532;2022-09-13T12:29:46;10.95;;;4.65;;
20935;SDS011;10627;54.514;18.532;2022-09-13T12:34:26;6.38;;;4.93;;
20935;SDS011;10627;54.514;18.532;2022-09-13T13:01:01;7.20;;;6.32;;
20935;SDS011;10627;54.514;18.532;2022-09-13T13:06:10;9.82;;;6.60;;
20935;SDS011;10627;54.514;18.532;2022-09-13T13:11:43;9.65;;;6.10;;
20935;SDS011;10627;54.514;18.532;2022-09-13T13:16:45;12.20;;;5.88;;
20935;SDS011;10627;54.514;18.532;2022-09-13T13:21:47;7.85;;;5.72;;
20935;SDS011;10627;54.514;18.532;2022-09-13T13:26:52;10.18;;;6.13;;
20935;SDS011;10627;54.514;18.532;2022-09-13T14:02:40;7.25;;;5.78;;
20935;SDS011;10627;54.514;18.532;2022-09-13T14:23:15;8.07;;;5.28;;
20935;SDS011;10627;54.514;18.532;2022-09-13T14:28:17;6.78;;;5.45;;
20935;SDS011;10627;54.514;18.532;2022-09-13T14:33:25;7.47;;;5.13;;
20935;SDS011;10627;54.514;18.532;2022-09-13T14:38:30;8.50;;;5.60;;
20935;SDS011;10627;54.514;18.532;2022-09-13T14:43:34;10.65;;;5.30;;
20935;SDS011;10627;54.514;18.532;2022-09-13T14:48:56;8.13;;;5.25;;
20935;SDS011;10627;54.514;18.532;2022-09-13T14:54:18;9.40;;;5.95;;
20935;SDS011;10627;54.514;18.532;2022-09-13T15:04:44;9.30;;;5.93;;
20935;SDS011;10627;54.514;18.532;2022-09-13T15:09:48;8.13;;;6.22;;
20935;SDS011;10627;54.514;18.532;2022-09-13T15:15:12;11.60;;;6.75;;
20935;SDS011;10627;54.514;18.532;2022-09-13T15:20:21;10.10;;;6.90;;
20935;SDS011;10627;54.514;18.532;2022-09-13T15:25:27;8.68;;;6.30;;
20935;SDS011;10627;54.514;18.532;2022-09-13T15:30:36;10.18;;;7.28;;
20935;SDS011;10627;54.514;18.532;2022-09-13T15:35:39;13.27;;;8.10;;
20935;SDS011;10627;54.514;18.532;2022-09-13T15:40:43;12.30;;;8.13;;
20935;SDS011;10627;54.514;18.532;2022-09-13T15:45:46;11.00;;;8.50;;
20935;SDS011;10627;54.514;18.532;2022-09-13T15:50:46;13.52;;;9.27;;
20935;SDS011;10627;54.514;18.532;2022-09-13T15:56:11;14.68;;;9.73;;
20935;SDS011;10627;54.514;18.532;2022-09-13T16:01:15;12.85;;;9.73;;
20935;SDS011;10627;54.514;18.532;2022-09-13T16:06:15;16.25;;;10.52;;
20935;SDS011;10627;54.514;18.532;2022-09-13T16:11:16;15.63;;;11.07;;
20935;SDS011;10627;54.514;18.532;2022-09-13T16:16:17;17.42;;;10.32;;
20935;SDS011;10627;54.514;18.532;2022-09-13T16:21:22;13.52;;;10.52;;
20935;SDS011;10627;54.514;18.532;2022-09-13T16:26:23;17.17;;;11.10;;
20935;SDS011;10627;54.514;18.532;2022-09-13T16:31:24;13.43;;;10.07;;
20935;SDS011;10627;54.514;18.532;2022-09-13T16:36:24;14.50;;;10.77;;
20935;SDS011;10627;54.514;18.532;2022-09-13T16:41:27;14.20;;;10.25;;
20935;SDS011;10627;54.514;18.532;2022-09-13T16:46:28;16.13;;;11.35;;
20935;SDS011;10627;54.514;18.532;2022-09-13T16:51:30;16.45;;;9.57;;
20935;SDS011;10627;54.514;18.532;2022-09-13T16:56:31;16.77;;;11.15;;
20935;SDS011;10627;54.514;18.532;2022-09-13T17:01:31;15.63;;;9.30;;
20935;SDS011;10627;54.514;18.532;2022-09-13T17:06:32;16.02;;;10.43;;
20935;SDS011;10627;54.514;18.532;2022-09-13T17:11:34;13.38;;;9.07;;
20935;SDS011;10627;54.514;18.532;2022-09-13T17:16:37;12.85;;;8.95;;
20935;SDS011;10627;54.514;18.532;2022-09-13T17:21:41;14.30;;;7.78;;
20935;SDS011;10627;54.514;18.532;2022-09-13T17:26:42;13.38;;;8.65;;
20935;SDS011;10627;54.514;18.532;2022-09-13T17:31:43;15.80;;;8.93;;
20935;SDS011;10627;54.514;18.532;2022-09-13T17:36:44;13.27;;;8.25;;
20935;SDS011;10627;54.514;18.532;2022-09-13T17:41:45;13.40;;;8.95;;
20935;SDS011;10627;54.514;18.532;2022-09-13T17:46:50;23.00;;;14.55;;
20935;SDS011;10627;54.514;18.532;2022-09-13T17:51:51;16.23;;;8.73;;
20935;SDS011;10627;54.514;18.532;2022-09-13T17:56:53;12.50;;;8.10;;
20935;SDS011;10627;54.514;18.532;2022-09-13T18:01:54;11.32;;;8.30;;
20935;SDS011;10627;54.514;18.532;2022-09-13T18:06:58;15.55;;;9.73;;
20935;SDS011;10627;54.514;18.532;2022-09-13T18:12:00;19.00;;;9.45;;
20935;SDS011;10627;54.514;18.532;2022-09-13T18:17:02;13.85;;;9.13;;
20935;SDS011;10627;54.514;18.532;2022-09-13T18:22:09;15.93;;;10.25;;
20935;SDS011;10627;54.514;18.532;2022-09-13T18:27:11;13.15;;;8.75;;
20935;SDS011;10627;54.514;18.532;2022-09-13T18:32:15;11.60;;;8.50;;
20935;SDS011;10627;54.514;18.532;2022-09-13T18:37:16;14.02;;;9.55;;
20935;SDS011;10627;54.514;18.532;2022-09-13T18:42:17;13.82;;;7.22;;
20935;SDS011;10627;54.514;18.532;2022-09-13T18:47:18;11.25;;;7.53;;
20935;SDS011;10627;54.514;18.532;2022-09-13T18:52:19;15.82;;;8.00;;
20935;SDS011;10627;54.514;18.532;2022-09-13T18:57:20;16.63;;;7.60;;
20935;SDS011;10627;54.514;18.532;2022-09-13T19:02:20;10.88;;;7.22;;
20935;SDS011;10627;54.514;18.532;2022-09-13T19:07:22;13.77;;;8.40;;
20935;SDS011;10627;54.514;18.532;2022-09-13T19:12:23;12.88;;;7.97;;
20935;SDS011;10627;54.514;18.532;2022-09-13T19:17:25;15.40;;;9.35;;
20935;SDS011;10627;54.514;18.532;2022-09-13T19:22:29;12.35;;;7.55;;
20935;SDS011;10627;54.514;18.532;2022-09-13T19:27:31;18.77;;;8.97;;
20935;SDS011;10627;54.514;18.532;2022-09-13T19:32:32;25.30;;;9.90;;
20935;SDS011;10627;54.514;18.532;2022-09-13T19:37:34;13.43;;;9.02;;
20935;SDS011;10627;54.514;18.532;2022-09-13T19:42:36;16.50;;;8.43;;
20935;SDS011;10627;54.514;18.532;2022-09-13T19:47:38;13.77;;;7.20;;
20935;SDS011;10627;54.514;18.532;2022-09-13T19:52:40;14.23;;;7.05;;
20935;SDS011;10627;54.514;18.532;2022-09-13T19:57:41;13.93;;;7.43;;
20935;SDS011;10627;54.514;18.532;2022-09-13T20:02:42;14.17;;;6.67;;
20935;SDS011;10627;54.514;18.532;2022-09-13T20:07:43;14.90;;;6.38;;
20935;SDS011;10627;54.514;18.532;2022-09-13T20:12:45;12.65;;;6.65;;
20935;SDS011;10627;54.514;18.532;2022-09-13T20:17:47;10.68;;;6.38;;
20935;SDS011;10627;54.514;18.532;2022-09-13T20:22:48;10.87;;;5.50;;
20935;SDS011;10627;54.514;18.532;2022-09-13T20:27:50;7.80;;;4.63;;
20935;SDS011;10627;54.514;18.532;2022-09-13T20:32:51;12.05;;;7.05;;
20935;SDS011;10627;54.514;18.532;2022-09-13T20:37:54;7.10;;;4.03;;
20935;SDS011;10627;54.514;18.532;2022-09-13T20:42:55;15.98;;;5.93;;
20935;SDS011;10627;54.514;18.532;2022-09-13T20:47:56;13.57;;;4.97;;
20935;SDS011;10627;54.514;18.532;2022-09-13T20:52:57;7.10;;;3.80;;
20935;SDS011;10627;54.514;18.532;2022-09-13T20:58:00;7.23;;;3.47;;
20935;SDS011;10627;54.514;18.532;2022-09-13T21:03:01;14.03;;;4.23;;
20935;SDS011;10627;54.514;18.532;2022-09-13T21:08:03;11.03;;;4.13;;
20935;SDS011;10627;54.514;18.532;2022-09-13T21:13:23;8.20;;;3.93;;
20935;SDS011;10627;54.514;18.532;2022-09-13T21:18:25;4.37;;;2.57;;
20935;SDS011;10627;54.514;18.532;2022-09-13T21:23:25;12.80;;;2.87;;
20935;SDS011;10627;54.514;18.532;2022-09-13T21:28:27;8.13;;;3.00;;
20935;SDS011;10627;54.514;18.532;2022-09-13T21:33:28;7.70;;;2.77;;
20935;SDS011;10627;54.514;18.532;2022-09-13T21:38:29;7.43;;;2.50;;
20935;SDS011;10627;54.514;18.532;2022-09-13T21:43:31;6.67;;;2.80;;
20935;SDS011;10627;54.514;18.532;2022-09-13T21:48:32;7.73;;;2.47;;
20935;SDS011;10627;54.514;18.532;2022-09-13T21:53:34;8.53;;;2.93;;
20935;SDS011;10627;54.514;18.532;2022-09-13T21:58:35;8.20;;;2.20;;
20935;SDS011;10627;54.514;18.532;2022-09-13T22:03:36;11.93;;;2.57;;
20935;SDS011;10627;54.514;18.532;2022-09-13T22:08:38;6.07;;;2.38;;
20935;SDS011;10627;54.514;18.532;2022-09-13T22:13:40;8.30;;;1.73;;
20935;SDS011;10627;54.514;18.532;2022-09-13T22:18:47;7.15;;;2.10;;
20935;SDS011;10627;54.514;18.532;2022-09-13T22:23:53;7.03;;;2.47;;
20935;SDS011;10627;54.514;18.532;2022-09-13T22:28:55;11.50;;;2.00;;
20935;SDS011;10627;54.514;18.532;2022-09-13T22:33:56;14.57;;;2.20;;
20935;SDS011;10627;54.514;18.532;2022-09-13T22:38:57;4.43;;;1.93;;
20935;SDS011;10627;54.514;18.532;2022-09-13T22:43:58;5.97;;;1.90;;
20935;SDS011;10627;54.514;18.532;2022-09-13T22:49:00;7.00;;;2.00;;
20935;SDS011;10627;54.514;18.532;2022-09-13T22:54:01;6.60;;;1.63;;
20935;SDS011;10627;54.514;18.532;2022-09-13T22:59:06;6.07;;;1.67;;
20935;SDS011;10627;54.514;18.532;2022-09-13T23:04:07;7.10;;;1.97;;
20935;SDS011;10627;54.514;18.532;2022-09-13T23:09:07;12.43;;;2.30;;
20935;SDS011;10627;54.514;18.532;2022-09-13T23:14:09;8.77;;;1.73;;
20935;SDS011;10627;54.514;18.532;2022-09-13T23:19:11;8.53;;;2.20;;
20935;SDS011;10627;54.514;18.532;2022-09-13T23:24:12;6.10;;;2.00;;
20935;SDS011;10627;54.514;18.532;2022-09-13T23:29:15;6.93;;;1.70;;
20935;SDS011;10627;54.514;18.532;2022-09-13T23:34:16;5.17;;;1.43;;
20935;SDS011;10627;54.514;18.532;2022-09-13T23:39:17;6.47;;;1.60;;
20935;SDS011;10627;54.514;18.532;2022-09-13T23:44:18;7.73;;;1.57;;
20935;SDS011;10627;54.514;18.532;2022-09-13T23:49:19;6.10;;;1.50;;
20935;SDS011;10627;54.514;18.532;2022-09-13T23:54:20;4.37;;;1.67;;
20935;SDS011;10627;54.514;18.532;2022-09-13T23:59:21;2.93;;;1.20;;
